sensor_id;sensor_type;location;lat;lon;timestamp;temperature;humidity
19728;DHT22;10015;52.530;13.390;2023-02-13T05:19:16;8.90;99.90
19728;DHT22;10015;52.530;13.390;2023-02-13T05:21:42;8.90;99.90
19728;DHT22;10015;52.530;13.390;2023-02-13T05:24:27;8.90;99.90
19728;DHT22;10015;52.530;13.390;2023-02-13T05:26:53;8.80;99.90
19728;DHT22;10015;52.530;13.390;2023-02-13T05:29:19;8.80;99.90
19728;DHT22;10015;52.530;13.390;2023-02-13T05:31:53;8.80;99.90
19728;DHT22;10015;52.530;13.390;2023-02-13T05:34:21;8.80;99.90
19728;DHT22;10015;52.530;13.390;2023-02-13T05:36:47;8.90;99.90
19728;DHT22;10015;52.530;13.390;2023-02-13T05:39:13;8.90;99.90
19728;DHT22;10015;52.530;13.390;2023-02-13T05:41:41;8.80;99.90
19728;DHT22;10015;52.530;13.390;2023-02-13T05:44:09;8.80;99.90
19728;DHT22;10015;52.530;13.390;2023-02-13T05:46:37;8.90;99.90
19728;DHT22;10015;52.530;13.390;2023-02-13T05:49:04;8.90;99.90
19728;DHT22;10015;52.530;13.390;2023-02-13T05:51:33;9.00;99.90
19728;DHT22;10015;52.530;13.390;2023-02-13T05:53:59;9.00;99.90
19728;DHT22;10015;52.530;13.390;2023-02-13T05:56:25;9.00;99.90
19728;DHT22;10015;52.530;13.390;2023-02-13T05:58:52;8.90;99.90
19728;DHT22;10015;52.530;13.390;2023-02-13T06:01:20;8.90;99.90
19728;DHT22;10015;52.530;13.390;2023-02-13T06:03:47;8.90;99.90
19728;DHT22;10015;52.530;13.390;2023-02-13T06:06:13;9.00;99.90
19728;DHT22;10015;52.530;13.390;2023-02-13T06:08:39;9.00;99.90
19728;DHT22;10015;52.530;13.390;2023-02-13T06:11:09;9.00;99.90
19728;DHT22;10015;52.530;13.390;2023-02-13T06:13:35;9.00;99.90
19728;DHT22;10015;52.530;13.390;2023-02-13T06:16:11;9.00;99.90
19728;DHT22;10015;52.530;13.390;2023-02-13T06:18:37;9.00;99.90
19728;DHT22;10015;52.530;13.390;2023-02-13T06:21:05;9.10;99.90
19728;DHT22;10015;52.530;13.390;2023-02-13T06:23:31;9.00;99.90
19728;DHT22;10015;52.530;13.390;2023-02-13T06:26:04;9.10;99.90
19728;DHT22;10015;52.530;13.390;2023-02-13T06:28:32;9.10;99.90
19728;DHT22;10015;52.530;13.390;2023-02-13T06:30:58;9.10;99.90
19728;DHT22;10015;52.530;13.390;2023-02-13T06:33:24;9.00;99.90
19728;DHT22;10015;52.530;13.390;2023-02-13T06:35:51;9.10;99.90
19728;DHT22;10015;52.530;13.390;2023-02-13T06:38:17;9.10;99.90
19728;DHT22;10015;52.530;13.390;2023-02-13T06:40:47;9.10;99.90
19728;DHT22;10015;52.530;13.390;2023-02-13T06:43:13;9.20;99.90
19728;DHT22;10015;52.530;13.390;2023-02-13T06:45:40;9.10;99.90
19728;DHT22;10015;52.530;13.390;2023-02-13T06:48:08;9.10;99.90
19728;DHT22;10015;52.530;13.390;2023-02-13T06:50:34;9.10;99.90
19728;DHT22;10015;52.530;13.390;2023-02-13T06:53:00;9.10;99.90
19728;DHT22;10015;52.530;13.390;2023-02-13T06:55:27;9.10;99.90
19728;DHT22;10015;52.530;13.390;2023-02-13T06:57:53;9.10;99.90
19728;DHT22;10015;52.530;13.390;2023-02-13T07:00:19;9.10;99.90
19728;DHT22;10015;52.530;13.390;2023-02-13T07:02:46;9.20;99.90
19728;DHT22;10015;52.530;13.390;2023-02-13T07:05:13;9.20;99.90
19728;DHT22;10015;52.530;13.390;2023-02-13T07:07:41;9.20;99.90
19728;DHT22;10015;52.530;13.390;2023-02-13T07:10:11;9.20;99.90
19728;DHT22;10015;52.530;13.390;2023-02-13T07:12:38;9.20;99.90
19728;DHT22;10015;52.530;13.390;2023-02-13T07:15:04;9.20;99.90
19728;DHT22;10015;52.530;13.390;2023-02-13T07:17:31;9.20;99.90
19728;DHT22;10015;52.530;13.390;2023-02-13T07:19:58;9.20;99.90
19728;DHT22;10015;52.530;13.390;2023-02-13T07:22:24;9.20;99.90
19728;DHT22;10015;52.530;13.390;2023-02-13T07:24:50;9.20;99.90
19728;DHT22;10015;52.530;13.390;2023-02-13T07:27:16;9.20;99.90
19728;DHT22;10015;52.530;13.390;2023-02-13T07:29:42;9.20;99.90
19728;DHT22;10015;52.530;13.390;2023-02-13T07:32:10;9.30;99.90
19728;DHT22;10015;52.530;13.390;2023-02-13T07:34:36;9.30;99.90
19728;DHT22;10015;52.530;13.390;2023-02-13T07:37:02;9.30;99.90
19728;DHT22;10015;52.530;13.390;2023-02-13T07:39:28;9.30;99.90
19728;DHT22;10015;52.530;13.390;2023-02-13T07:41:57;9.30;99.90
19728;DHT22;10015;52.530;13.390;2023-02-13T07:44:25;9.30;99.90
19728;DHT22;10015;52.530;13.390;2023-02-13T07:46:51;9.10;99.90
19728;DHT22;10015;52.530;13.390;2023-02-13T07:49:17;9.20;99.90
19728;DHT22;10015;52.530;13.390;2023-02-13T07:51:43;9.00;99.90
19728;DHT22;10015;52.530;13.390;2023-02-13T07:54:08;9.00;99.90
19728;DHT22;10015;52.530;13.390;2023-02-13T07:56:34;9.10;99.90
19728;DHT22;10015;52.530;13.390;2023-02-13T07:59:00;9.10;99.90
19728;DHT22;10015;52.530;13.390;2023-02-13T08:01:26;9.10;99.90
19728;DHT22;10015;52.530;13.390;2023-02-13T08:03:52;9.20;99.90
19728;DHT22;10015;52.530;13.390;2023-02-13T08:06:19;9.30;99.90
19728;DHT22;10015;52.530;13.390;2023-02-13T08:08:45;9.30;99.90
19728;DHT22;10015;52.530;13.390;2023-02-13T08:11:22;9.30;99.90
19728;DHT22;10015;52.530;13.390;2023-02-13T08:14:08;9.30;99.90
19728;DHT22;10015;52.530;13.390;2023-02-13T08:16:34;9.30;99.90
19728;DHT22;10015;52.530;13.390;2023-02-13T08:19:00;9.30;99.90
19728;DHT22;10015;52.530;13.390;2023-02-13T08:21:28;9.40;99.90
19728;DHT22;10015;52.530;13.390;2023-02-13T08:23:55;9.40;99.90
19728;DHT22;10015;52.530;13.390;2023-02-13T08:26:21;9.40;99.90
19728;DHT22;10015;52.530;13.390;2023-02-13T08:28:47;9.40;99.90
19728;DHT22;10015;52.530;13.390;2023-02-13T08:31:13;9.40;99.90
19728;DHT22;10015;52.530;13.390;2023-02-13T08:33:39;9.40;99.90
19728;DHT22;10015;52.530;13.390;2023-02-13T08:36:06;9.50;99.90
19728;DHT22;10015;52.530;13.390;2023-02-13T08:38:33;9.40;99.90
19728;DHT22;10015;52.530;13.390;2023-02-13T08:40:59;9.40;99.90
19728;DHT22;10015;52.530;13.390;2023-02-13T08:43:25;9.50;99.90
19728;DHT22;10015;52.530;13.390;2023-02-13T08:45:51;9.50;99.90
19728;DHT22;10015;52.530;13.390;2023-02-13T08:48:17;9.50;99.90
19728;DHT22;10015;52.530;13.390;2023-02-13T08:50:43;9.50;99.90
19728;DHT22;10015;52.530;13.390;2023-02-13T08:53:09;9.50;99.90
19728;DHT22;10015;52.530;13.390;2023-02-13T08:55:35;9.60;99.90
19728;DHT22;10015;52.530;13.390;2023-02-13T08:58:03;9.60;99.90
19728;DHT22;10015;52.530;13.390;2023-02-13T09:00:30;9.60;99.90
19728;DHT22;10015;52.530;13.390;2023-02-13T09:03:03;9.50;99.90
19728;DHT22;10015;52.530;13.390;2023-02-13T09:05:29;9.60;99.90
19728;DHT22;10015;52.530;13.390;2023-02-13T09:07:59;9.60;99.90
19728;DHT22;10015;52.530;13.390;2023-02-13T09:10:27;9.60;99.90
19728;DHT22;10015;52.530;13.390;2023-02-13T09:12:53;9.50;99.90
19728;DHT22;10015;52.530;13.390;2023-02-13T09:15:19;9.50;99.90
19728;DHT22;10015;52.530;13.390;2023-02-13T09:17:45;9.50;99.90
19728;DHT22;10015;52.530;13.390;2023-02-13T09:20:12;9.50;99.90
19728;DHT22;10015;52.530;13.390;2023-02-13T09:22:39;9.60;99.90
19728;DHT22;10015;52.530;13.390;2023-02-13T09:25:06;9.50;99.90
19728;DHT22;10015;52.530;13.390;2023-02-13T09:27:33;9.50;99.90
19728;DHT22;10015;52.530;13.390;2023-02-13T09:29:59;9.40;99.90
19728;DHT22;10015;52.530;13.390;2023-02-13T09:32:25;9.30;99.90
19728;DHT22;10015;52.530;13.390;2023-02-13T09:34:51;9.10;99.90
19728;DHT22;10015;52.530;13.390;2023-02-13T09:37:18;9.20;99.90
19728;DHT22;10015;52.530;13.390;2023-02-13T09:39:44;9.20;99.90
19728;DHT22;10015;52.530;13.390;2023-02-13T09:42:28;9.20;99.90
19728;DHT22;10015;52.530;13.390;2023-02-13T09:45:02;9.10;99.90
19728;DHT22;10015;52.530;13.390;2023-02-13T09:47:35;9.10;99.90
19728;DHT22;10015;52.530;13.390;2023-02-13T09:50:22;9.20;99.90
19728;DHT22;10015;52.530;13.390;2023-02-13T09:52:50;9.20;99.90
19728;DHT22;10015;52.530;13.390;2023-02-13T09:55:28;9.30;99.90
19728;DHT22;10015;52.530;13.390;2023-02-13T10:00:43;9.30;99.90
19728;DHT22;10015;52.530;13.390;2023-02-13T10:03:24;9.20;99.90
19728;DHT22;10015;52.530;13.390;2023-02-13T10:12:55;9.10;99.90
19728;DHT22;10015;52.530;13.390;2023-02-13T10:16:01;9.30;99.90
19728;DHT22;10015;52.530;13.390;2023-02-13T10:21:28;9.40;99.90
19728;DHT22;10015;52.530;13.390;2023-02-13T10:24:11;9.40;99.90
19728;DHT22;10015;52.530;13.390;2023-02-13T10:26:40;9.50;99.90
19728;DHT22;10015;52.530;13.390;2023-02-13T10:32:02;9.40;99.90
19728;DHT22;10015;52.530;13.390;2023-02-13T10:34:35;9.30;99.90
19728;DHT22;10015;52.530;13.390;2023-02-13T10:37:03;9.20;99.90
19728;DHT22;10015;52.530;13.390;2023-02-13T10:39:35;9.20;99.90
19728;DHT22;10015;52.530;13.390;2023-02-13T10:42:43;9.20;99.90
19728;DHT22;10015;52.530;13.390;2023-02-13T10:54:23;9.50;99.90
19728;DHT22;10015;52.530;13.390;2023-02-13T11:02:19;10.30;99.90
19728;DHT22;10015;52.530;13.390;2023-02-13T11:04:46;10.30;99.90
19728;DHT22;10015;52.530;13.390;2023-02-13T11:07:16;10.30;99.90
19728;DHT22;10015;52.530;13.390;2023-02-13T11:09:44;10.20;99.90
19728;DHT22;10015;52.530;13.390;2023-02-13T11:12:32;10.10;99.90
19728;DHT22;10015;52.530;13.390;2023-02-13T11:15:02;10.00;99.90
19728;DHT22;10015;52.530;13.390;2023-02-13T11:17:35;9.90;99.90
19728;DHT22;10015;52.530;13.390;2023-02-13T11:20:36;9.70;99.90
19728;DHT22;10015;52.530;13.390;2023-02-13T11:23:27;9.70;99.90
19728;DHT22;10015;52.530;13.390;2023-02-13T11:26:37;9.60;99.90
19728;DHT22;10015;52.530;13.390;2023-02-13T11:29:16;9.60;99.90
19728;DHT22;10015;52.530;13.390;2023-02-13T11:31:43;9.70;99.90
19728;DHT22;10015;52.530;13.390;2023-02-13T11:34:25;9.60;99.90
19728;DHT22;10015;52.530;13.390;2023-02-13T11:39:40;9.50;99.90
19728;DHT22;10015;52.530;13.390;2023-02-13T11:42:35;9.30;99.90
19728;DHT22;10015;52.530;13.390;2023-02-13T11:47:41;9.30;99.90
19728;DHT22;10015;52.530;13.390;2023-02-13T11:50:25;9.40;99.90
19728;DHT22;10015;52.530;13.390;2023-02-13T11:53:02;9.40;99.90
19728;DHT22;10015;52.530;13.390;2023-02-13T11:55:34;9.50;99.90
19728;DHT22;10015;52.530;13.390;2023-02-13T12:00:39;9.40;99.90
19728;DHT22;10015;52.530;13.390;2023-02-13T12:03:25;9.30;99.90
19728;DHT22;10015;52.530;13.390;2023-02-13T12:06:15;9.30;99.90
19728;DHT22;10015;52.530;13.390;2023-02-13T12:08:47;9.20;99.90
19728;DHT22;10015;52.530;13.390;2023-02-13T12:11:35;9.30;99.90
19728;DHT22;10015;52.530;13.390;2023-02-13T12:14:02;9.40;99.90
19728;DHT22;10015;52.530;13.390;2023-02-13T12:17:03;9.40;99.90
19728;DHT22;10015;52.530;13.390;2023-02-13T12:19:43;9.30;99.90
19728;DHT22;10015;52.530;13.390;2023-02-13T12:33:15;9.60;99.90
19728;DHT22;10015;52.530;13.390;2023-02-13T12:47:18;9.50;99.90
19728;DHT22;10015;52.530;13.390;2023-02-13T12:50:15;9.60;99.90
19728;DHT22;10015;52.530;13.390;2023-02-13T13:32:23;9.50;99.90
19728;DHT22;10015;52.530;13.390;2023-02-13T13:34:52;9.50;99.90
19728;DHT22;10015;52.530;13.390;2023-02-13T13:51:01;9.40;99.90
19728;DHT22;10015;52.530;13.390;2023-02-13T13:53:28;9.30;99.90
19728;DHT22;10015;52.530;13.390;2023-02-13T13:58:44;9.30;99.90
19728;DHT22;10015;52.530;13.390;2023-02-13T14:01:26;9.30;99.90
19728;DHT22;10015;52.530;13.390;2023-02-13T14:04:09;9.40;99.90
19728;DHT22;10015;52.530;13.390;2023-02-13T14:11:54;9.30;99.90
19728;DHT22;10015;52.530;13.390;2023-02-13T14:14:44;9.30;99.90
19728;DHT22;10015;52.530;13.390;2023-02-13T14:17:14;9.20;99.90
19728;DHT22;10015;52.530;13.390;2023-02-13T19:39:00;8.70;99.90
19728;DHT22;10015;52.530;13.390;2023-02-13T19:54:19;8.60;99.90
19728;DHT22;10015;52.530;13.390;2023-02-13T19:56:45;8.60;99.90
19728;DHT22;10015;52.530;13.390;2023-02-13T19:59:12;8.50;99.90
19728;DHT22;10015;52.530;13.390;2023-02-13T20:02:01;8.50;99.90
19728;DHT22;10015;52.530;13.390;2023-02-13T20:04:27;8.50;99.90
19728;DHT22;10015;52.530;13.390;2023-02-13T20:06:53;8.50;99.90
19728;DHT22;10015;52.530;13.390;2023-02-13T20:09:23;8.50;99.90
19728;DHT22;10015;52.530;13.390;2023-02-13T20:11:49;8.50;99.90
19728;DHT22;10015;52.530;13.390;2023-02-13T20:14:15;8.60;99.90
19728;DHT22;10015;52.530;13.390;2023-02-13T20:16:42;8.70;99.90
19728;DHT22;10015;52.530;13.390;2023-02-13T20:19:10;8.70;99.90
19728;DHT22;10015;52.530;13.390;2023-02-13T20:21:40;8.70;99.90
19728;DHT22;10015;52.530;13.390;2023-02-13T20:24:08;8.80;99.90
19728;DHT22;10015;52.530;13.390;2023-02-13T20:26:34;8.70;99.90
19728;DHT22;10015;52.530;13.390;2023-02-13T20:29:01;8.80;99.90
19728;DHT22;10015;52.530;13.390;2023-02-13T20:31:30;8.80;99.90
19728;DHT22;10015;52.530;13.390;2023-02-13T20:33:56;8.70;99.90
19728;DHT22;10015;52.530;13.390;2023-02-13T20:36:28;8.70;99.90
19728;DHT22;10015;52.530;13.390;2023-02-13T20:38:56;8.80;99.90
19728;DHT22;10015;52.530;13.390;2023-02-13T20:41:25;8.80;99.90
19728;DHT22;10015;52.530;13.390;2023-02-13T20:43:55;8.70;99.90
19728;DHT22;10015;52.530;13.390;2023-02-13T20:46:21;8.70;99.90
19728;DHT22;10015;52.530;13.390;2023-02-13T20:48:47;8.70;99.90
19728;DHT22;10015;52.530;13.390;2023-02-13T20:51:16;8.70;99.90
19728;DHT22;10015;52.530;13.390;2023-02-13T20:53:43;8.80;99.90
19728;DHT22;10015;52.530;13.390;2023-02-13T20:56:20;8.80;99.90
19728;DHT22;10015;52.530;13.390;2023-02-13T20:58:48;8.80;99.90
19728;DHT22;10015;52.530;13.390;2023-02-13T21:01:28;8.70;99.90
19728;DHT22;10015;52.530;13.390;2023-02-13T21:03:55;8.60;99.90
19728;DHT22;10015;52.530;13.390;2023-02-13T21:06:23;8.60;99.90
19728;DHT22;10015;52.530;13.390;2023-02-13T21:08:50;8.60;99.90
19728;DHT22;10015;52.530;13.390;2023-02-13T21:11:17;8.60;99.90
19728;DHT22;10015;52.530;13.390;2023-02-13T21:13:44;8.70;99.90
19728;DHT22;10015;52.530;13.390;2023-02-13T21:16:15;8.70;99.90
19728;DHT22;10015;52.530;13.390;2023-02-13T21:18:46;8.70;99.90
19728;DHT22;10015;52.530;13.390;2023-02-13T21:21:12;8.70;99.90
19728;DHT22;10015;52.530;13.390;2023-02-13T21:23:42;8.70;99.90
19728;DHT22;10015;52.530;13.390;2023-02-13T21:26:11;8.70;99.90
19728;DHT22;10015;52.530;13.390;2023-02-13T21:28:38;8.70;99.90
19728;DHT22;10015;52.530;13.390;2023-02-13T21:31:17;8.70;99.90
19728;DHT22;10015;52.530;13.390;2023-02-13T21:33:44;8.60;99.90
19728;DHT22;10015;52.530;13.390;2023-02-13T21:36:11;8.50;99.90
19728;DHT22;10015;52.530;13.390;2023-02-13T21:38:39;8.40;99.90
19728;DHT22;10015;52.530;13.390;2023-02-13T21:41:16;8.50;99.90
19728;DHT22;10015;52.530;13.390;2023-02-13T21:43:43;8.50;99.90
19728;DHT22;10015;52.530;13.390;2023-02-13T21:46:20;8.50;99.90
19728;DHT22;10015;52.530;13.390;2023-02-13T21:48:50;8.60;99.90
19728;DHT22;10015;52.530;13.390;2023-02-13T21:51:18;8.60;99.90
19728;DHT22;10015;52.530;13.390;2023-02-13T21:53:46;8.60;99.90
19728;DHT22;10015;52.530;13.390;2023-02-13T21:56:15;8.60;99.90
19728;DHT22;10015;52.530;13.390;2023-02-13T21:58:42;8.60;99.90
19728;DHT22;10015;52.530;13.390;2023-02-13T22:01:17;8.60;99.90
19728;DHT22;10015;52.530;13.390;2023-02-13T22:03:45;8.60;99.90
19728;DHT22;10015;52.530;13.390;2023-02-13T22:06:12;8.60;99.90
19728;DHT22;10015;52.530;13.390;2023-02-13T22:08:38;8.60;99.90
19728;DHT22;10015;52.530;13.390;2023-02-13T22:11:04;8.60;99.90
19728;DHT22;10015;52.530;13.390;2023-02-13T22:13:33;8.60;99.90
19728;DHT22;10015;52.530;13.390;2023-02-13T22:16:04;8.60;99.90
19728;DHT22;10015;52.530;13.390;2023-02-13T22:18:39;8.60;99.90
19728;DHT22;10015;52.530;13.390;2023-02-13T22:21:13;8.60;99.90
19728;DHT22;10015;52.530;13.390;2023-02-13T22:23:40;8.70;99.90
19728;DHT22;10015;52.530;13.390;2023-02-13T22:26:06;8.60;99.90
19728;DHT22;10015;52.530;13.390;2023-02-13T22:28:33;8.60;99.90
19728;DHT22;10015;52.530;13.390;2023-02-13T22:30:59;8.60;99.90
19728;DHT22;10015;52.530;13.390;2023-02-13T22:33:25;8.60;99.90
19728;DHT22;10015;52.530;13.390;2023-02-13T22:35:51;8.60;99.90
19728;DHT22;10015;52.530;13.390;2023-02-13T22:38:17;8.60;99.90
19728;DHT22;10015;52.530;13.390;2023-02-13T22:40:43;8.60;99.90
19728;DHT22;10015;52.530;13.390;2023-02-13T22:43:09;8.60;99.90
19728;DHT22;10015;52.530;13.390;2023-02-13T22:45:38;8.60;99.90
19728;DHT22;10015;52.530;13.390;2023-02-13T22:48:05;8.50;99.90
19728;DHT22;10015;52.530;13.390;2023-02-13T22:50:32;8.50;99.90
19728;DHT22;10015;52.530;13.390;2023-02-13T22:52:58;8.50;99.90
19728;DHT22;10015;52.530;13.390;2023-02-13T22:55:25;8.50;99.90
19728;DHT22;10015;52.530;13.390;2023-02-13T22:57:51;8.50;99.90
19728;DHT22;10015;52.530;13.390;2023-02-13T23:00:21;8.40;99.90
19728;DHT22;10015;52.530;13.390;2023-02-13T23:02:49;8.40;99.90
19728;DHT22;10015;52.530;13.390;2023-02-13T23:05:16;8.40;99.90
19728;DHT22;10015;52.530;13.390;2023-02-13T23:07:42;8.40;99.90
19728;DHT22;10015;52.530;13.390;2023-02-13T23:10:08;8.40;99.90
19728;DHT22;10015;52.530;13.390;2023-02-13T23:12:34;8.40;99.90
19728;DHT22;10015;52.530;13.390;2023-02-13T23:15:02;8.40;99.90
19728;DHT22;10015;52.530;13.390;2023-02-13T23:17:29;8.30;99.90
19728;DHT22;10015;52.530;13.390;2023-02-13T23:20:14;8.30;99.90
19728;DHT22;10015;52.530;13.390;2023-02-13T23:22:40;8.30;99.90
19728;DHT22;10015;52.530;13.390;2023-02-13T23:25:06;8.30;99.90
19728;DHT22;10015;52.530;13.390;2023-02-13T23:27:34;8.30;99.90
19728;DHT22;10015;52.530;13.390;2023-02-13T23:30:00;8.30;99.90
19728;DHT22;10015;52.530;13.390;2023-02-13T23:32:26;8.30;99.90
19728;DHT22;10015;52.530;13.390;2023-02-13T23:34:52;8.40;99.90
19728;DHT22;10015;52.530;13.390;2023-02-13T23:37:18;8.40;99.90
19728;DHT22;10015;52.530;13.390;2023-02-13T23:39:44;8.40;99.90
19728;DHT22;10015;52.530;13.390;2023-02-13T23:42:11;8.40;99.90
19728;DHT22;10015;52.530;13.390;2023-02-13T23:44:36;8.40;99.90
19728;DHT22;10015;52.530;13.390;2023-02-13T23:47:02;8.50;99.90
19728;DHT22;10015;52.530;13.390;2023-02-13T23:49:28;8.40;99.90
19728;DHT22;10015;52.530;13.390;2023-02-13T23:51:55;8.40;99.90
19728;DHT22;10015;52.530;13.390;2023-02-13T23:54:22;8.50;99.90
19728;DHT22;10015;52.530;13.390;2023-02-13T23:56:50;8.50;99.90
19728;DHT22;10015;52.530;13.390;2023-02-13T23:59:17;8.50;99.90
